createdAt,value
2019-04-07T04:00:53.194Z,999.25
2019-04-07T04:01:52.364Z,999.18
2019-04-07T04:03:45.967Z,999.24
2019-04-07T04:04:45.691Z,999.20
2019-04-07T04:06:37.616Z,999.25
2019-04-07T04:07:38.587Z,999.26
2019-04-07T04:09:30.457Z,999.20
2019-04-07T04:10:30.154Z,999.23
2019-04-07T04:12:22.804Z,999.22
2019-04-07T04:13:23.114Z,999.33
2019-04-07T04:15:15.273Z,999.33
2019-04-07T04:16:15.149Z,999.27
2019-04-07T04:18:07.805Z,999.27
2019-04-07T04:19:08.280Z,999.23
2019-04-07T04:21:01.402Z,999.28
2019-04-07T04:22:00.637Z,999.26
2019-04-07T04:23:53.082Z,999.28
2019-04-07T04:24:53.481Z,999.28
2019-04-07T04:26:45.983Z,999.29
2019-04-07T04:27:45.499Z,999.30
2019-04-07T04:29:38.044Z,999.32
2019-04-07T04:30:37.941Z,999.36
2019-04-07T04:32:30.932Z,999.36
2019-04-07T04:33:31.050Z,999.41
2019-04-07T04:35:23.147Z,999.38
2019-04-07T04:36:23.897Z,999.39
2019-04-07T04:38:15.873Z,999.38
2019-04-07T04:39:18.661Z,999.44
2019-04-07T04:41:08.254Z,999.40
2019-04-07T04:42:08.455Z,999.42
2019-04-07T04:44:00.816Z,999.45
2019-04-07T04:45:00.775Z,999.55
2019-04-07T04:46:53.354Z,999.48
2019-04-07T04:47:53.744Z,999.49
2019-04-07T04:49:45.929Z,999.58
2019-04-07T04:50:45.906Z,999.52
2019-04-07T04:52:38.501Z,999.50
2019-04-07T04:53:38.365Z,999.53
2019-04-07T04:55:31.868Z,999.52
2019-04-07T04:56:31.034Z,999.51
2019-04-07T04:58:23.651Z,999.57
2019-04-07T04:59:23.480Z,999.51
2019-04-07T05:01:16.287Z,999.64
2019-04-07T05:02:16.254Z,999.57
2019-04-07T05:04:09.187Z,999.57
2019-04-07T05:05:09.526Z,999.67
2019-04-07T05:07:01.502Z,999.65
2019-04-07T05:08:04.032Z,999.65
2019-04-07T05:09:55.642Z,999.63
2019-04-07T05:10:53.696Z,999.69
2019-04-07T05:12:47.178Z,999.71
2019-04-07T05:13:46.725Z,999.69
2019-04-07T05:15:39.034Z,999.76
2019-04-07T05:16:38.879Z,999.76
2019-04-07T05:18:32.309Z,999.78
2019-04-07T05:19:31.367Z,999.76
2019-04-07T05:21:24.048Z,999.81
2019-04-07T05:22:24.078Z,999.79
2019-04-07T05:24:16.920Z,999.82
2019-04-07T05:25:16.486Z,999.84
2019-04-07T05:27:09.710Z,999.85
2019-04-07T05:28:09.054Z,999.84
2019-04-07T05:30:02.439Z,999.87
2019-04-07T05:31:02.331Z,999.88
2019-04-07T05:32:54.535Z,999.93
2019-04-07T05:33:54.177Z,999.92
2019-04-07T05:35:46.829Z,999.95
2019-04-07T05:36:46.794Z,999.95
2019-04-07T05:38:39.545Z,1000.02
2019-04-07T05:39:39.493Z,1000.03
2019-04-07T05:41:32.493Z,1000.04
2019-04-07T05:42:32.692Z,1000.01
2019-04-07T05:44:24.540Z,999.98
2019-04-07T05:45:25.346Z,999.99
2019-04-07T05:47:17.037Z,1000.03
2019-04-07T05:48:19.462Z,1000.04
2019-04-07T05:50:10.059Z,1000.05
2019-04-07T05:51:09.762Z,1000.04
2019-04-07T05:53:02.168Z,1000.06
2019-04-07T05:54:02.599Z,1000.08
2019-04-07T05:55:55.575Z,1000.08
2019-04-07T05:56:58.614Z,1000.15
2019-04-07T05:58:47.266Z,1000.12
2019-04-07T05:59:47.180Z,1000.18
2019-04-07T06:01:40.155Z,1000.17
2019-04-07T06:02:39.702Z,1000.19
2019-04-07T06:04:32.373Z,1000.23
2019-04-07T06:05:32.272Z,1000.19
2019-04-07T06:07:28.783Z,1000.21
2019-04-07T06:08:32.657Z,1000.21
2019-04-07T06:10:18.248Z,1000.26
2019-04-07T06:11:17.377Z,1000.27
2019-04-07T06:13:12.950Z,1000.27
2019-04-07T06:14:11.551Z,1000.26
2019-04-07T06:16:03.059Z,1000.29
2019-04-07T06:17:02.488Z,1000.33
2019-04-07T06:18:55.511Z,1000.26
2019-04-07T06:19:55.718Z,1000.28
2019-04-07T06:21:48.908Z,1000.28
2019-04-07T06:22:50.484Z,1000.29
2019-04-07T06:24:40.585Z,1000.28
2019-04-07T06:25:42.351Z,1000.27
2019-04-07T06:27:33.576Z,1000.28
2019-04-07T06:28:32.741Z,1000.30
2019-04-07T06:30:28.133Z,1000.32
2019-04-07T06:31:26.271Z,1000.31
2019-04-07T06:33:17.937Z,1000.30
2019-04-07T06:34:18.491Z,1000.28
2019-04-07T06:36:10.529Z,1000.31
2019-04-07T06:37:10.386Z,1000.28
2019-04-07T06:39:03.628Z,1000.27
2019-04-07T06:40:03.548Z,1000.30
2019-04-07T06:41:58.935Z,1000.29
2019-04-07T06:42:55.768Z,1000.31
2019-04-07T06:44:50.122Z,1000.31
2019-04-07T06:45:49.045Z,1000.35
2019-04-07T06:47:40.749Z,1000.35
2019-04-07T06:48:41.288Z,1000.39
2019-04-07T06:50:43.903Z,1000.40
2019-04-07T06:51:33.490Z,1000.41
2019-04-07T06:53:25.960Z,1000.42
2019-04-07T06:54:25.938Z,1000.48
2019-04-07T06:56:18.578Z,1000.48
2019-04-07T06:57:18.520Z,1000.41
2019-04-07T06:59:13.849Z,1000.49
2019-04-07T07:00:10.896Z,1000.50
2019-04-07T07:02:04.240Z,1000.50
2019-04-07T07:03:04.340Z,1000.47
2019-04-07T07:04:56.203Z,1000.47
2019-04-07T07:05:56.149Z,1000.50
2019-04-07T07:07:49.723Z,1000.50
2019-04-07T07:08:50.568Z,1000.54
2019-04-07T07:10:42.171Z,1000.78
2019-04-07T07:11:43.277Z,1000.91
2019-04-07T07:13:36.330Z,1000.96
2019-04-07T07:14:42.254Z,1000.99
2019-04-07T07:16:26.404Z,1001.00
2019-04-07T07:17:26.840Z,1000.97
2019-04-07T07:19:19.680Z,1000.98
2019-04-07T07:20:18.850Z,1001.06
2019-04-07T07:22:14.794Z,1001.03
2019-04-07T07:23:14.097Z,1001.05
2019-04-07T07:25:04.170Z,1001.07
2019-04-07T07:26:04.261Z,1001.05
2019-04-07T07:27:56.687Z,1001.08
2019-04-07T07:28:57.467Z,1001.06
2019-04-07T07:30:51.116Z,1001.05
2019-04-07T07:31:51.961Z,1001.09
2019-04-07T07:33:43.577Z,1001.05
2019-04-07T07:34:42.466Z,1001.08
2019-04-07T07:36:35.036Z,1000.98
2019-04-07T07:37:34.338Z,1000.97
2019-04-07T07:39:27.225Z,1001.08
2019-04-07T07:40:27.555Z,1001.12
2019-04-07T07:42:23.137Z,1001.13
2019-04-07T07:43:19.838Z,1001.12
2019-04-07T07:45:13.166Z,1001.12
2019-04-07T07:46:12.107Z,1001.15
2019-04-07T07:48:05.368Z,1001.16
2019-04-07T07:49:04.683Z,1001.11
2019-04-07T07:50:57.393Z,1001.08
2019-04-07T07:51:57.269Z,1001.14
2019-04-07T07:53:50.524Z,1001.23
2019-04-07T07:54:50.748Z,1001.29
2019-04-07T07:56:48.231Z,1001.31
2019-04-07T07:57:42.542Z,1001.19
2019-04-07T07:59:38.968Z,1001.04
2019-04-07T08:00:39.818Z,1001.01
2019-04-07T08:02:29.965Z,1000.95
2019-04-07T08:03:28.114Z,1000.87
2019-04-07T08:05:20.346Z,1000.87
2019-04-07T08:06:20.580Z,1000.83
2019-04-07T08:08:14.990Z,1000.87
2019-04-07T08:09:15.472Z,1000.84
2019-04-07T08:11:05.674Z,1000.88
2019-04-07T08:12:06.228Z,1000.85
2019-04-07T08:13:58.075Z,1000.87
2019-04-07T08:14:58.663Z,1000.88
2019-04-07T08:16:51.081Z,1000.92
2019-04-07T08:17:50.896Z,1000.96
2019-04-07T08:19:44.537Z,1000.93
2019-04-07T08:20:44.995Z,1000.91
2019-04-07T08:22:40.572Z,1000.85
2019-04-07T08:23:36.250Z,1000.85
2019-04-07T08:25:29.082Z,1000.88
2019-04-07T08:26:28.914Z,1000.90
2019-04-07T08:28:21.654Z,1000.97
2019-04-07T08:29:21.443Z,1000.91
2019-04-07T08:31:17.767Z,1000.95
2019-04-07T08:32:13.466Z,1000.93
2019-04-07T08:34:06.158Z,1000.93
2019-04-07T08:35:06.820Z,1000.88
2019-04-07T08:36:59.514Z,1000.87
2019-04-07T08:37:58.620Z,1000.85
2019-04-07T08:39:52.511Z,1000.84
2019-04-07T08:40:53.985Z,1000.93
2019-04-07T08:42:46.378Z,1000.88
2019-04-07T08:43:43.784Z,1000.90
2019-04-07T08:45:37.108Z,1000.93
2019-04-07T08:46:40.890Z,1000.86
2019-04-07T08:48:29.056Z,1000.89
2019-04-07T08:49:31.512Z,1000.90
2019-04-07T08:51:22.378Z,1000.87
2019-04-07T08:52:21.521Z,1000.86
2019-04-07T08:54:16.858Z,1000.84
2019-04-07T08:55:14.098Z,1000.86
2019-04-07T08:57:07.090Z,1000.89
2019-04-07T08:58:06.734Z,1000.85
2019-04-07T08:59:59.382Z,1000.86
2019-04-07T09:00:59.267Z,1000.83
2019-04-07T09:03:01.634Z,1000.87
2019-04-07T09:03:51.881Z,1000.85
2019-04-07T09:05:44.552Z,1000.89
2019-04-07T09:06:44.934Z,1000.85
2019-04-07T09:08:39.575Z,1000.84
2019-04-07T09:09:40.366Z,1000.83
2019-04-07T09:11:30.361Z,1000.86
2019-04-07T09:12:31.972Z,1000.86
2019-04-07T09:14:22.317Z,1000.86
2019-04-07T09:15:22.455Z,1000.88
2019-04-07T09:17:14.950Z,1000.80
2019-04-07T09:18:15.900Z,1000.85
2019-04-07T09:20:10.420Z,1000.85
2019-04-07T09:21:07.837Z,1000.84
2019-04-07T09:23:00.583Z,1000.85
2019-04-07T09:24:00.311Z,1000.86
2019-04-07T09:25:52.561Z,1000.89
2019-04-07T09:26:52.489Z,1000.86
2019-04-07T09:28:45.344Z,1000.82
2019-04-07T09:29:45.297Z,1000.85
2019-04-07T09:31:37.729Z,1000.79
2019-04-07T09:32:37.621Z,1000.86
2019-04-07T09:34:30.333Z,1000.89
2019-04-07T09:35:30.898Z,1000.89
2019-04-07T09:37:25.168Z,1000.89
2019-04-07T09:38:26.176Z,1000.88
2019-04-07T09:40:17.599Z,1000.83
2019-04-07T09:41:19.164Z,1000.84
2019-04-07T09:43:09.053Z,1000.84
2019-04-07T09:44:09.198Z,1000.80
2019-04-07T09:46:01.669Z,1000.85
2019-04-07T09:47:02.095Z,1000.89
2019-04-07T09:48:54.214Z,1000.82
2019-04-07T09:49:56.702Z,1000.84
2019-04-07T09:51:46.817Z,1000.83
2019-04-07T09:52:48.867Z,1000.81
2019-04-07T09:54:39.404Z,1000.82
2019-04-07T09:55:39.285Z,1000.84
2019-04-07T09:57:35.452Z,1000.83
2019-04-07T09:58:31.997Z,1000.85
2019-04-07T10:00:25.165Z,1000.84
2019-04-07T10:01:27.788Z,1000.83
2019-04-07T10:03:17.111Z,1000.85
2019-04-07T10:04:17.025Z,1000.83
2019-04-07T10:06:10.557Z,1000.82
2019-04-07T10:07:10.395Z,1000.81
2019-04-07T10:09:02.291Z,1000.83
2019-04-07T10:10:10.167Z,1000.83
2019-04-07T10:11:55.435Z,1000.78
2019-04-07T10:12:55.381Z,1000.82
2019-04-07T10:14:47.472Z,1000.82
2019-04-07T10:15:47.532Z,1000.82
2019-04-07T10:17:40.052Z,1000.79
2019-04-07T10:18:40.142Z,1000.69
2019-04-07T10:20:32.631Z,1000.75
2019-04-07T10:21:32.513Z,1000.71
2019-04-07T10:23:25.324Z,1000.73
2019-04-07T10:24:25.827Z,1000.76
2019-04-07T10:26:17.937Z,1000.71
2019-04-07T10:27:18.699Z,1000.72
2019-04-07T10:29:11.035Z,1000.68
2019-04-07T10:30:11.036Z,1000.70
2019-04-07T10:32:03.490Z,1000.79
2019-04-07T10:33:03.103Z,1000.72
2019-04-07T10:34:55.546Z,1000.76
2019-04-07T10:35:55.419Z,1000.77
2019-04-07T10:37:51.076Z,1000.69
2019-04-07T10:38:48.146Z,1000.70
2019-04-07T10:40:41.178Z,1000.68
2019-04-07T10:41:40.583Z,1000.75
2019-04-07T10:43:33.839Z,1000.72
2019-04-07T10:44:34.051Z,1000.73
2019-04-07T10:46:26.001Z,1000.70
2019-04-07T10:47:25.748Z,1000.72
2019-04-07T10:49:19.137Z,1000.68
2019-04-07T10:50:18.337Z,1000.68
2019-04-07T10:52:11.326Z,1000.68
2019-04-07T10:53:11.446Z,1000.64
2019-04-07T10:55:03.618Z,1000.70
2019-04-07T10:56:03.498Z,1000.69
2019-04-07T10:57:56.193Z,1000.67
2019-04-07T10:58:56.703Z,1000.65
2019-04-07T11:00:50.825Z,1000.65
2019-04-07T11:01:49.097Z,1000.66
2019-04-07T11:03:41.351Z,1000.65
2019-04-07T11:04:41.252Z,1000.65
2019-04-07T11:06:33.947Z,1000.62
2019-04-07T11:07:33.878Z,1000.64
2019-04-07T11:09:26.686Z,1000.64
2019-04-07T11:10:34.504Z,1000.66
2019-04-07T11:12:19.863Z,1000.60
2019-04-07T11:13:18.995Z,1000.66
2019-04-07T11:15:12.463Z,1000.70
2019-04-07T11:16:11.574Z,1000.70
2019-04-07T11:18:04.281Z,1000.65
2019-04-07T11:19:04.471Z,1000.63
2019-04-07T11:20:57.245Z,1000.68
2019-04-07T11:21:56.778Z,1000.53
2019-04-07T11:23:49.444Z,1000.57
2019-04-07T11:24:49.319Z,1000.62
2019-04-07T11:26:42.851Z,1000.68
2019-04-07T11:27:42.183Z,1000.66
2019-04-07T11:29:37.646Z,1000.70
2019-04-07T11:30:35.460Z,1000.69
2019-04-07T11:32:28.242Z,1000.64
2019-04-07T11:33:27.841Z,1000.64
2019-04-07T11:35:23.317Z,1000.66
2019-04-07T11:36:22.566Z,1000.61
2019-04-07T11:38:15.098Z,1000.57
2019-04-07T11:39:15.279Z,1000.62
2019-04-07T11:41:08.202Z,1000.55
2019-04-07T11:42:08.569Z,1000.58
2019-04-07T11:44:01.986Z,1000.55
2019-04-07T11:45:03.824Z,1000.50
2019-04-07T11:46:53.970Z,1000.50
2019-04-07T11:47:54.485Z,1000.57
2019-04-07T11:49:47.121Z,1000.58
2019-04-07T11:50:47.217Z,1000.56
2019-04-07T11:52:49.392Z,1000.57
2019-04-07T11:53:50.264Z,1000.64
2019-04-07T11:55:45.315Z,1000.61
2019-04-07T11:56:44.869Z,1000.59
2019-04-07T11:58:38.680Z,1000.60
2019-04-07T11:59:39.259Z,1000.64
2019-04-07T12:01:32.797Z,1000.65
2019-04-07T12:02:33.004Z,1000.61
2019-04-07T12:04:25.173Z,1000.63
2019-04-07T12:05:26.739Z,1000.68
2019-04-07T12:07:20.337Z,1000.66
2019-04-07T12:08:17.776Z,1000.73
2019-04-07T12:10:14.165Z,1000.67
2019-04-07T12:11:13.320Z,1000.52
2019-04-07T12:13:04.815Z,1000.56
2019-04-07T12:14:04.098Z,1000.54
2019-04-07T12:15:58.291Z,1000.62
2019-04-07T12:16:59.362Z,1000.66
2019-04-07T12:18:53.724Z,1000.61
2019-04-07T12:19:55.106Z,1000.62
2019-04-07T12:21:45.512Z,1000.59
2019-04-07T12:22:47.745Z,1000.58
2019-04-07T12:24:37.998Z,1000.57
2019-04-07T12:25:37.438Z,1000.55
2019-04-07T12:27:30.288Z,1000.53
2019-04-07T12:28:30.135Z,1000.49
2019-04-07T12:30:23.387Z,1000.55
2019-04-07T12:31:22.748Z,1000.55
2019-04-07T12:33:15.479Z,1000.50
2019-04-07T12:34:15.515Z,1000.50
2019-04-07T12:36:08.329Z,1000.52
2019-04-07T12:37:07.945Z,1000.49
2019-04-07T12:39:00.505Z,1000.52
2019-04-07T12:40:01.104Z,1000.49
2019-04-07T12:41:55.876Z,1000.47
2019-04-07T12:42:53.485Z,1000.44
2019-04-07T12:44:46.370Z,1000.43
2019-04-07T12:45:46.616Z,1000.43
2019-04-07T12:47:38.242Z,1000.40
2019-04-07T12:48:38.144Z,1000.41
2019-04-07T12:50:31.577Z,1000.44
2019-04-07T12:51:30.796Z,1000.40
2019-04-07T12:53:23.713Z,1000.31
2019-04-07T12:54:23.419Z,1000.28
2019-04-07T12:56:16.803Z,1000.30
2019-04-07T12:57:16.786Z,1000.33
2019-04-07T12:59:09.004Z,1000.26
2019-04-07T13:00:08.497Z,1000.32
2019-04-07T13:02:05.553Z,1000.37
2019-04-07T13:03:01.707Z,1000.36
2019-04-07T13:04:53.763Z,1000.31
2019-04-07T13:05:54.138Z,1000.28
2019-04-07T13:07:48.429Z,1000.29
2019-04-07T13:08:46.832Z,1000.30
2019-04-07T13:10:39.378Z,1000.31
2019-04-07T13:11:44.969Z,1000.32
2019-04-07T13:13:33.000Z,1000.36
2019-04-07T13:14:32.323Z,1000.36
2019-04-07T13:16:26.325Z,1000.36
2019-04-07T13:17:24.880Z,1000.29
2019-04-07T13:19:16.720Z,1000.31
2019-04-07T13:20:19.727Z,1000.25
2019-04-07T13:22:09.962Z,1000.23
2019-04-07T13:23:09.320Z,1000.27
2019-04-07T13:25:04.500Z,1000.16
2019-04-07T13:26:02.222Z,1000.20
2019-04-07T13:27:55.241Z,1000.19
2019-04-07T13:28:54.525Z,1000.21
2019-04-07T13:30:47.051Z,1000.14
2019-04-07T13:31:47.086Z,1000.23
2019-04-07T13:33:39.641Z,1000.18
2019-04-07T13:34:39.520Z,1000.23
2019-04-07T13:36:32.209Z,1000.20
2019-04-07T13:37:32.786Z,1000.26
2019-04-07T13:39:24.948Z,1000.21
2019-04-07T13:40:25.257Z,1000.21
2019-04-07T13:42:18.173Z,1000.27
2019-04-07T13:43:17.608Z,1000.18
2019-04-07T13:45:12.159Z,1000.25
2019-04-07T13:46:18.900Z,1000.28
2019-04-07T13:48:03.468Z,1000.25
2019-04-07T13:49:02.895Z,1000.19
2019-04-07T13:50:55.628Z,1000.22
2019-04-07T13:53:47.763Z,1000.17
2019-04-07T13:54:48.281Z,1000.20
2019-04-07T13:56:40.804Z,1000.22
2019-04-07T13:57:40.440Z,1000.14
2019-04-07T13:59:33.640Z,1000.21
2019-04-07T14:00:32.809Z,1000.14
2019-04-07T14:02:29.926Z,1000.06
2019-04-07T14:03:25.564Z,1000.17
2019-04-07T14:05:18.045Z,1000.15
2019-04-07T14:06:17.944Z,1000.20
2019-04-07T14:08:11.386Z,1000.20
2019-04-07T14:09:11.433Z,1000.20
2019-04-07T14:11:04.234Z,1000.19
2019-04-07T14:12:08.908Z,1000.21
2019-04-07T14:13:56.570Z,1000.17
2019-04-07T14:14:55.976Z,1000.20
2019-04-07T14:16:48.668Z,1000.17
2019-04-07T14:17:48.310Z,1000.12
2019-04-07T14:19:41.022Z,1000.15
2019-04-07T14:20:40.892Z,1000.13
2019-04-07T14:22:34.295Z,1000.07
2019-04-07T14:23:34.210Z,1000.09
2019-04-07T14:25:26.753Z,1000.13
2019-04-07T14:26:26.872Z,1000.10
2019-04-07T14:28:20.091Z,1000.03
2019-04-07T14:29:19.538Z,1000.07
2019-04-07T14:31:11.869Z,1000.07
2019-04-07T14:32:12.002Z,1000.04
2019-04-07T14:34:04.443Z,1000.09
2019-04-07T14:35:05.183Z,1000.09
2019-04-07T14:36:57.817Z,1000.03
2019-04-07T14:37:57.237Z,1000.07
2019-04-07T14:39:49.637Z,1000.07
2019-04-07T14:40:49.992Z,1000.10
2019-04-07T14:42:42.875Z,1000.08
2019-04-07T14:43:42.107Z,1000.10
2019-04-07T14:45:35.188Z,1000.06
2019-04-07T14:46:34.904Z,1000.07
2019-04-07T14:48:28.230Z,1000.11
2019-04-07T14:49:28.503Z,1000.08
2019-04-07T14:51:19.970Z,1000.04
2019-04-07T14:52:19.967Z,1000.07
2019-04-07T14:54:12.539Z,1000.12
2019-04-07T14:55:13.010Z,1000.04
2019-04-07T14:57:07.323Z,1000.14
2019-04-07T14:58:05.643Z,1000.12
2019-04-07T14:59:57.888Z,1000.12
2019-04-07T15:01:02.710Z,1000.10
2019-04-07T15:02:50.998Z,1000.14
2019-04-07T15:03:50.197Z,1000.18
2019-04-07T15:05:42.883Z,1000.11
2019-04-07T15:06:42.780Z,1000.17
2019-04-07T15:08:35.619Z,1000.20
2019-04-07T15:09:36.009Z,1000.21
2019-04-07T15:11:28.104Z,1000.19
2019-04-07T15:12:28.511Z,1000.23
2019-04-07T15:14:21.345Z,1000.22
2019-04-07T15:15:21.283Z,1000.22
2019-04-07T15:17:13.240Z,1000.19
2019-04-07T15:18:13.138Z,1000.19
2019-04-07T15:20:07.479Z,1000.20
2019-04-07T15:21:05.739Z,1000.21
2019-04-07T15:23:00.312Z,1000.15
2019-04-07T15:24:01.912Z,1000.21
2019-04-07T15:25:51.640Z,1000.22
2019-04-07T15:26:51.886Z,1000.22
2019-04-07T15:28:44.676Z,1000.17
2019-04-07T15:29:45.812Z,1000.16
2019-04-07T15:31:37.447Z,1000.16
2019-04-07T15:32:36.622Z,1000.19
2019-04-07T15:34:29.724Z,1000.18
2019-04-07T15:35:29.722Z,1000.20
2019-04-07T15:37:24.140Z,1000.18
2019-04-07T15:38:24.872Z,1000.14
2019-04-07T15:40:14.493Z,1000.21
2019-04-07T15:41:17.659Z,1000.23
2019-04-07T15:43:09.985Z,1000.24
2019-04-07T15:44:10.510Z,1000.21
2019-04-07T15:46:00.125Z,1000.23
2019-04-07T15:46:59.572Z,1000.25
2019-04-07T15:48:54.302Z,1000.24
2019-04-07T15:49:52.822Z,1000.31
2019-04-07T15:51:45.199Z,1000.26
2019-04-07T15:52:46.964Z,1000.27
2019-04-07T15:54:37.428Z,1000.30
2019-04-07T15:55:47.642Z,1000.30
2019-04-07T15:57:30.171Z,1000.34
2019-04-07T15:58:29.888Z,1000.30
2019-04-07T16:00:22.619Z,1000.30
2019-04-07T16:01:22.470Z,1000.31
2019-04-07T16:03:16.784Z,1000.34
2019-04-07T16:04:15.925Z,1000.36
2019-04-07T16:06:07.842Z,1000.39
2019-04-07T16:07:08.120Z,1000.38
2019-04-07T16:09:01.213Z,1000.41
2019-04-07T16:10:00.218Z,1000.43
2019-04-07T16:11:53.268Z,1000.42
2019-04-07T16:12:54.355Z,1000.42
2019-04-07T16:14:46.966Z,1000.45
2019-04-07T16:15:48.333Z,1000.42
2019-04-07T16:17:38.390Z,1000.45
2019-04-07T16:18:40.885Z,1000.41
2019-04-07T16:20:35.643Z,1000.43
2019-04-07T16:21:30.567Z,1000.45
2019-04-07T16:23:23.240Z,1000.45
2019-04-07T16:24:23.133Z,1000.43
2019-04-07T16:26:15.836Z,1000.44
2019-04-07T16:27:15.723Z,1000.42
2019-04-07T16:29:08.498Z,1000.42
2019-04-07T16:30:08.588Z,1000.47
2019-04-07T16:32:01.791Z,1000.46
2019-04-07T16:33:03.033Z,1000.41
2019-04-07T16:34:53.577Z,1000.49
2019-04-07T16:35:55.422Z,1000.48
2019-04-07T16:37:46.139Z,1000.53
2019-04-07T16:38:46.549Z,1000.52
2019-04-07T16:40:41.937Z,1000.52
2019-04-07T16:41:39.273Z,1000.48
2019-04-07T16:43:33.803Z,1000.56
2019-04-07T16:44:31.863Z,1000.57
2019-04-07T16:46:24.998Z,1000.54
2019-04-07T16:47:26.346Z,1000.59
2019-04-07T16:49:18.833Z,1000.55
2019-04-07T16:50:18.914Z,1000.54
2019-04-07T16:52:09.279Z,1000.58
2019-04-07T16:53:09.278Z,1000.60
2019-04-07T16:55:02.400Z,1000.61
2019-04-07T16:56:02.062Z,1000.61
2019-04-07T16:57:54.443Z,1000.59
2019-04-07T16:58:55.398Z,1000.60
2019-04-07T17:00:47.502Z,1000.68
2019-04-07T17:01:46.893Z,1000.65
2019-04-07T17:03:39.817Z,1000.65
2019-04-07T17:04:39.472Z,1000.66
2019-04-07T17:06:35.412Z,1000.69
2019-04-07T17:07:32.802Z,1000.71
2019-04-07T17:09:27.516Z,1000.68
2019-04-07T17:10:29.606Z,1000.69
2019-04-07T17:12:18.410Z,1000.65
2019-04-07T17:13:23.762Z,1000.68
2019-04-07T17:15:10.419Z,1000.65
2019-04-07T17:16:11.615Z,1000.71
2019-04-07T17:18:02.472Z,1000.65
2019-04-07T17:19:02.365Z,1000.64
2019-04-07T17:20:55.261Z,1000.71
2019-04-07T17:21:55.527Z,1000.66
2019-04-07T17:23:47.709Z,1000.69
2019-04-07T17:24:47.841Z,1000.70
2019-04-07T17:26:40.214Z,1000.70
2019-04-07T17:27:42.380Z,1000.75
2019-04-07T17:29:32.768Z,1000.83
2019-04-07T17:30:32.665Z,1000.86
2019-04-07T17:32:25.421Z,1000.84
2019-04-07T17:33:25.268Z,1000.82
2019-04-07T17:35:18.930Z,1000.83
2019-04-07T17:36:21.015Z,1000.82
2019-04-07T17:38:10.780Z,1000.79
2019-04-07T17:39:11.124Z,1000.85
2019-04-07T17:41:03.105Z,1000.90
2019-04-07T17:42:03.461Z,1000.94
2019-04-07T17:43:59.006Z,1000.92
2019-04-07T17:44:55.567Z,1000.91
2019-04-07T17:46:48.979Z,1000.94
2019-04-07T17:47:48.724Z,1000.96
2019-04-07T17:49:40.832Z,1000.97
2019-04-07T17:50:40.702Z,1000.97
2019-04-07T17:52:33.744Z,1000.95
2019-04-07T17:53:33.296Z,1000.98
2019-04-07T17:55:27.708Z,1001.00
2019-04-07T17:56:29.797Z,1001.02
2019-04-07T17:58:18.990Z,1001.05
2019-04-07T17:59:18.438Z,1001.03
2019-04-07T18:01:11.591Z,1001.04
2019-04-07T18:02:11.495Z,1001.08
2019-04-07T18:04:04.686Z,1001.09
2019-04-07T18:05:04.567Z,1001.09
2019-04-07T18:06:57.254Z,1001.13
2019-04-07T18:07:57.149Z,1001.17
2019-04-07T18:09:51.347Z,1001.22
2019-04-07T18:10:50.744Z,1001.20
2019-04-07T18:12:49.211Z,1001.22
2019-04-07T18:13:49.505Z,1001.27
2019-04-07T18:15:37.364Z,1001.26
2019-04-07T18:16:35.299Z,1001.26
2019-04-07T18:18:28.250Z,1001.27
2019-04-07T18:19:30.344Z,1001.26
2019-04-07T18:21:20.857Z,1001.31
2019-04-07T18:22:22.313Z,1001.33
2019-04-07T18:24:13.610Z,1001.31
2019-04-07T18:25:12.593Z,1001.33
2019-04-07T18:27:05.802Z,1001.35
2019-04-07T18:28:05.544Z,1001.32
2019-04-07T18:30:00.582Z,1001.31
2019-04-07T18:31:00.410Z,1001.34
2019-04-07T18:32:51.374Z,1001.39
2019-04-07T18:33:52.382Z,1001.38
2019-04-07T18:35:43.220Z,1001.42
2019-04-07T18:36:43.849Z,1001.41
2019-04-07T18:38:36.342Z,1001.50
2019-04-07T18:39:36.293Z,1001.49
2019-04-07T18:41:30.825Z,1001.56
2019-04-07T18:42:28.026Z,1001.58
2019-04-07T18:44:20.709Z,1001.57
2019-04-07T18:45:21.569Z,1001.58
2019-04-07T18:47:15.119Z,1001.64
2019-04-07T18:48:13.602Z,1001.63
2019-04-07T18:50:07.619Z,1001.66
2019-04-07T18:51:07.948Z,1001.67
2019-04-07T18:52:58.462Z,1001.66
2019-04-07T18:54:01.583Z,1001.70
2019-04-07T18:55:51.005Z,1001.68
2019-04-07T18:56:50.971Z,1001.75
2019-04-07T18:58:47.112Z,1001.74
2019-04-07T18:59:44.217Z,1001.75
2019-04-07T19:01:38.974Z,1001.76
2019-04-07T19:02:36.050Z,1001.74
2019-04-07T19:04:30.286Z,1001.77
2019-04-07T19:05:31.561Z,1001.75
2019-04-07T19:07:21.360Z,1001.79
2019-04-07T19:08:21.625Z,1001.83
2019-04-07T19:10:20.081Z,1001.82
2019-04-07T19:11:17.200Z,1001.85
2019-04-07T19:13:14.177Z,1001.82
2019-04-07T19:14:24.610Z,1001.88
2019-04-07T19:15:59.794Z,1001.88
2019-04-07T19:16:58.913Z,1001.89
2019-04-07T19:18:51.954Z,1001.89
2019-04-07T19:19:51.697Z,1001.89
2019-04-07T19:21:46.066Z,1001.91
2019-04-07T19:22:46.524Z,1001.91
2019-04-07T19:24:36.746Z,1001.93
2019-04-07T19:25:37.620Z,1001.97
2019-04-07T19:27:31.298Z,1001.98
2019-04-07T19:28:29.497Z,1002.01
2019-04-07T19:30:22.918Z,1002.01
2019-04-07T19:31:21.747Z,1002.00
2019-04-07T19:33:14.430Z,1002.03
2019-04-07T19:34:14.323Z,1002.03
2019-04-07T19:36:10.282Z,1002.08
2019-04-07T19:37:06.890Z,1002.12
2019-04-07T19:39:00.609Z,1002.07
2019-04-07T19:40:01.501Z,1002.05
2019-04-07T19:41:52.905Z,1002.08
2019-04-07T19:42:52.164Z,1002.07
2019-04-07T19:44:48.769Z,1002.08
2019-04-07T19:45:44.655Z,1002.11
2019-04-07T19:47:37.296Z,1002.12
2019-04-07T19:48:40.456Z,1002.10
2019-04-07T19:50:30.712Z,1002.09
2019-04-07T19:51:30.431Z,1002.14
2019-04-07T19:53:22.511Z,1002.09
2019-04-07T19:54:22.317Z,1002.11
2019-04-07T19:56:14.993Z,1002.07
2019-04-07T19:57:15.427Z,1002.09
2019-04-07T19:59:09.061Z,1002.06
2019-04-07T20:00:07.450Z,1002.10
2019-04-07T20:02:01.806Z,1002.11
2019-04-07T20:03:04.228Z,1002.15
2019-04-07T20:04:53.710Z,1002.15
2019-04-07T20:05:53.350Z,1002.12
2019-04-07T20:07:46.195Z,1002.13
2019-04-07T20:08:45.913Z,1002.14
2019-04-07T20:10:38.071Z,1002.15
2019-04-07T20:11:38.954Z,1002.15
2019-04-07T20:13:30.446Z,1002.13
2019-04-07T20:14:30.492Z,1002.11
2019-04-07T20:16:24.066Z,1002.15
2019-04-07T20:17:24.501Z,1002.17
2019-04-07T20:19:16.578Z,1002.19
2019-04-07T20:20:15.475Z,1002.17
2019-04-07T20:22:09.000Z,1002.22
2019-04-07T20:23:08.494Z,1002.20
2019-04-07T20:25:00.854Z,1002.21
2019-04-07T20:26:01.605Z,1002.22
2019-04-07T20:27:56.048Z,1002.25
2019-04-07T20:28:54.173Z,1002.24
2019-04-07T20:30:48.436Z,1002.25
2019-04-07T20:31:45.752Z,1002.24
2019-04-07T20:33:38.449Z,1002.26
2019-04-07T20:34:41.662Z,1002.25
2019-04-07T20:36:31.631Z,1002.27
2019-04-07T20:37:30.889Z,1002.27
2019-04-07T20:39:23.621Z,1002.26
2019-04-07T20:40:23.654Z,1002.29
2019-04-07T20:42:17.372Z,1002.26
2019-04-07T20:43:16.506Z,1002.27
2019-04-07T20:45:14.185Z,1002.26
2019-04-07T20:46:08.898Z,1002.30
2019-04-07T20:48:01.601Z,1002.35
2019-04-07T20:49:02.857Z,1002.26
2019-04-07T20:50:54.102Z,1002.32
2019-04-07T20:51:54.472Z,1002.26
2019-04-07T20:53:46.418Z,1002.23
2019-04-07T20:54:46.539Z,1002.29
2019-04-07T20:56:41.969Z,1002.31
2019-04-07T20:57:39.359Z,1002.31
2019-04-07T20:59:33.294Z,1002.33
2019-04-07T21:00:35.658Z,1002.32
2019-04-07T21:02:25.008Z,1002.32
2019-04-07T21:03:26.541Z,1002.35
2019-04-07T21:05:17.189Z,1002.32
2019-04-07T21:06:17.060Z,1002.35
2019-04-07T21:08:10.354Z,1002.36
2019-04-07T21:09:09.929Z,1002.33
2019-04-07T21:11:05.643Z,1002.35
2019-04-07T21:12:02.965Z,1002.31
2019-04-07T21:13:54.875Z,1002.35
2019-04-07T21:14:55.063Z,1002.35
2019-04-07T21:16:47.475Z,1002.31
2019-04-07T21:17:48.147Z,1002.34
2019-04-07T21:19:40.001Z,1002.34
2019-04-07T21:20:40.737Z,1002.33
2019-04-07T21:22:33.475Z,1002.33
2019-04-07T21:23:33.148Z,1002.34
2019-04-07T21:25:26.146Z,1002.36
2019-04-07T21:26:27.259Z,1002.37
2019-04-07T21:28:18.239Z,1002.36